Time;durP1;ratioP1;P1;durP2;ratioP2;P2;SDS_P1;SDS_P2;PMS_P1;PMS_P2;Temp;Humidity;BMP_temperature;BMP_pressure;BME280_temperature;BME280_humidity;BME280_pressure;Samples;Min_cycle;Max_cycle;Signal;HPM_P1;HPM_P2
2021/10/11 16:04:51;;;;;;;;;;;;;;;;;;7430498;19;19903;-77
2021/10/11 16:07:16;;;;;;;;;;;;;;;;;;7428966;19;19930;-76
2021/10/11 16:09:42;;;;;;;;;;;;;;;;;;7430594;19;19923;-76
2021/10/11 16:12:07;;;;;;;;;;;;;;;;;;7429753;19;20279;-76
2021/10/11 16:14:32;;;;;;;;;;;;;;;;;;7429206;19;19910;-75
2021/10/11 16:16:57;;;;;;;;;;;;;;;;;;7430566;19;19926;-77
2021/10/11 16:19:22;;;;;;;;;;;;;;;;;;7430187;19;19966;-76
2021/10/11 16:21:47;;;;;;;;;;;;;;;;;;7432749;19;19914;-78
2021/10/11 16:24:12;;;;;;;;;;;;;;;;;;7430265;19;19915;-78
2021/10/11 16:26:38;;;;;;;;;;;;;;;;;;7431058;19;20326;-77
2021/10/11 16:29:03;;;;;;;;;;;;;;;;;;7431681;19;20354;-77
2021/10/11 16:31:28;;;;;;;;;;;;;;;;;;7431275;19;20319;-78
2021/10/11 16:33:53;;;;;;;;;;;;;;;;;;7430213;19;19911;-79
2021/10/11 16:36:18;;;;;;;;;;;;;;;;;;7434040;19;19982;-78
2021/10/11 16:38:43;;;;;;;;;;;;;;;;;;7429776;19;20298;-77
2021/10/11 16:41:09;;;;;;;;;;;;;;;;;;7430477;19;19927;-78
2021/10/11 16:43:34;;;;;;;;;;;;;;;;;;7429404;19;20270;-78
2021/10/11 16:45:59;;;;;;;;;;;;;;;;;;7429833;19;20342;-76
2021/10/11 16:48:24;;;;;;;;;;;;;;;;;;7430961;19;19925;-80
2021/10/11 16:50:49;;;;;;;;;;;;;;;;;;7430488;19;19906;-78
2021/10/11 16:53:14;;;;;;;;;;;;;;;;;;7427978;19;19910;-78
2021/10/11 16:55:39;;;;;;;;;;;;;;;;;;7430621;19;19917;-78
2021/10/11 16:58:05;;;;;;;;;;;;;;;;;;7428754;19;19921;-76
2021/10/11 17:00:30;;;;;;;;;;;;;;;;;;7430229;19;20021;-76
2021/10/11 17:02:55;;;;;;;;;;;;;;;;;;7431082;19;19918;-76
2021/10/11 17:05:21;;;;;;;;;;;;;;;;;;7403089;19;20368;-78
2021/10/11 17:07:50;;;;;;;;;;;;;;;;;;7400528;19;19923;-78
2021/10/11 17:10:15;;;;;;;;;;;;;;;;;;7401271;19;19926;-77
2021/10/11 17:12:40;;;;;;;;;;;;;;;;;;7401749;19;19915;-77
2021/10/11 17:15:05;;;;;;;;;;;;;;;;;;7395085;19;20645;-75
2021/10/11 17:17:30;;;;;;;;;;;;;;;;;;7401356;19;19919;-75
2021/10/11 17:19:55;;;;;;;;;;;;;;;;;;7403122;19;19914;-77
2021/10/11 17:22:21;;;;;;;;;;;;;;;;;;7400738;19;20329;-77
2021/10/11 17:24:47;;;;;;;;;;;;;;;;;;7399179;19;19931;-76
2021/10/11 17:27:13;;;;;;;;;;;;;;;;;;7399935;19;19946;-76
2021/10/11 17:29:38;;;;;;;;;;;;;;;;;;7401626;19;19907;-77
2021/10/11 17:32:03;;;;;;;;;;;;;;;;;;7399435;19;20291;-79
2021/10/11 17:34:28;;;;;;;;;;;;;;;;;;7399033;19;19926;-77
2021/10/11 17:36:53;;;;;;;;;;;;;;;;;;7400731;19;20340;-85
2021/10/11 17:39:18;;;;;;;;;;;;;;;;;;7401094;19;20256;-79
2021/10/11 17:41:44;;;;;;;;;;;;;;;;;;7400640;19;19935;-77
2021/10/11 17:44:09;;;;;;;;;;;;;;;;;;7397769;19;19911;-77
2021/10/11 17:46:34;;;;;;;;;;;;;;;;;;7401198;19;19915;-75
2021/10/11 17:48:59;;;;;;;;;;;;;;;;;;7401435;19;19910;-73
2021/10/11 17:51:24;;;;;;;;;;;;;;;;;;7398752;19;19907;-77
2021/10/11 17:53:49;;;;;;;;;;;;;;;;;;7396252;19;19907;-74
2021/10/11 17:56:14;;;;;;;;;;;;;;;;;;7400345;19;20329;-77
2021/10/11 17:58:40;;;;;;;;;;;;;;;;;;7397274;19;19907;-76
2021/10/11 18:01:05;;;;;;;;;;;;;;;;;;7399503;19;19911;-78
2021/10/11 18:03:30;;;;;;;;;;;;;;;;;;7399423;19;19918;-77
2021/10/11 18:05:55;;;;;;;;;;;;;;;;;;7399140;19;19907;-80
2021/10/11 18:08:20;;;;;;;;;;;;;;;;;;7397194;19;19907;-78
2021/10/11 18:10:46;;;;;;;;;;;;;;;;;;7398290;19;19931;-79
2021/10/11 18:13:11;;;;;;;;;;;;;;;;;;7397815;19;20055;-77
2021/10/11 18:15:36;;;;;;;;;;;;;;;;;;7395476;19;19914;-77
2021/10/11 18:18:01;;;;;;;;;;;;;;;;;;7398791;19;19914;-75
2021/10/11 18:20:26;;;;;;;;;;;;;;;;;;7397331;19;19966;-76
2021/10/11 18:22:51;;;;;;;;;;;;;;;;;;7398365;19;19925;-74
